ADDS METAR Data INFO
IDs: Format: Raw Decoded Include TAF

Data at: 0305 UTC 21 Oct 2017

KEMK 210255Z AUTO 12022KT 10SM CLR 26/23 A2997 RMK A01
KEMK 210235Z AUTO 14021KT 9SM FEW014 SCT043 26/23 A2997 RMK A01
KEMK 210215Z AUTO 13022KT 9SM BKN015 BKN021 BKN042 26/23 A2997 RMK A01
KEMK 210155Z AUTO 12020KT 10SM BKN015 BKN040 26/24 A2997 RMK A01
KEMK 210135Z AUTO 12018KT 10SM SCT015 26/23 A2996 RMK A01
KEMK 210115Z AUTO 12014KT 10SM CLR 26/23 A2995 RMK A01
KEMK 210055Z AUTO 13014KT 10SM CLR 26/23 A2994 RMK A01
KEMK 210035Z AUTO 12017KT 10SM CLR 25/22 A2994 RMK A01
KEMK 210015Z AUTO 12016KT 10SM CLR 25/22 A2994 RMK A01
KEMK 202355Z AUTO 10015KT 10SM CLR 25/23 A2994 RMK A01
KEMK 202335Z AUTO 12010KT 9SM CLR 25/23 A2994 RMK A01
KEMK 202315Z AUTO 13013KT 8SM CLR 25/23 A2996 RMK A01
KEMK 202255Z AUTO 14011KT 8SM FEW100 25/23 A2995 RMK A01
KEMK 202235Z AUTO 12018KT 9SM CLR 25/22 A2994 RMK A01
KEMK 202215Z AUTO 12016KT 7SM FEW075 FEW085 24/22 A2994 RMK A01
KEMK 202155Z AUTO 11015KT 9SM FEW012 BKN070 BKN085 24/22 A2995 RMK A01
KEMK 202135Z AUTO 11016KT 6SM BR SCT070 25/22 A2995 RMK A01
KEMK 202115Z AUTO 14010KT 2 1/2SM HZ FEW033 FEW040 SCT065 25/22 A2995 RMK A01
KEMK 202055Z AUTO 13016KT 8SM SCT035 BKN065 25/22 A2996 RMK A01
KEMK 202035Z AUTO 11017KT 7SM FEW014 FEW050 BKN060 25/23 A2996 RMK A01
KEMK 202015Z AUTO 13016KT 9SM FEW050 SCT060 BKN070 26/23 A2996 RMK A01
KEMK 201955Z AUTO 13013KT 8SM FEW060 FEW080 26/23 A2995 RMK A01
KEMK 191915Z AUTO 08021KT 9SM FEW024 BKN028 OVC035 29/22 A3005 RMK A01
KEMK 191855Z AUTO 07021KT 9SM SCT027 BKN032 29/22 A3005 RMK A01
KEMK 191835Z AUTO 08020KT 10SM FEW027 29/22 A3007 RMK A01
KEMK 191815Z AUTO 09020KT 9SM SCT026 SCT031 29/21 A3007 RMK A01
KEMK 191755Z AUTO 08020KT 10SM SCT025 29/22 A3008 RMK A01
KEMK 191735Z AUTO 08019KT 9SM FEW027 29/21 A3009 RMK A01
KEMK 191715Z AUTO 09020KT 9SM FEW027 SCT046 28/21 A3009 RMK A01
KEMK 191655Z AUTO 09019KT 9SM FEW026 FEW047 28/21 A3010 RMK A01
KEMK 191635Z AUTO 09019KT 9SM FEW025 FEW031 28/21 A3010 RMK A01
KEMK 191615Z AUTO 09020KT 9SM FEW027 SCT033 28/21 A3010 RMK A01
KEMK 191555Z AUTO 09020KT 9SM FEW050 29/21 A3010 RMK A01
KEMK 191535Z AUTO 10020KT 9SM FEW027 FEW035 SCT050 28/21 A3010 RMK A01
KEMK 191515Z AUTO 09021KT 9SM SCT026 BKN035 28/21 A3010 RMK A01